Time;durP1;ratioP1;P1;durP2;ratioP2;P2;SDS_P1;SDS_P2;PMS_P1;PMS_P2;Temp;Humidity;BMP_temperature;BMP_pressure;BME280_temperature;BME280_humidity;BME280_pressure;Samples;Min_cycle;Max_cycle;Signal;HPM_P1;HPM_P2
2023/10/07 00:00:37;;;;;;;13.20;2.73;;;16.30;1.00;;;;;;5053806;28;20532;-72
2023/10/07 00:03:05;;;;;;;11.90;4.10;;;16.30;1.00;;;;;;5053512;28;20405;-73
2023/10/07 00:05:35;;;;;;;19.83;4.20;;;16.30;1.00;;;;;;5051425;28;20445;-72
2023/10/07 00:08:12;;;;;;;15.10;3.50;;;16.20;1.00;;;;;;5052679;28;20405;-73
2023/10/07 00:10:39;;;;;;;13.83;4.53;;;16.20;1.00;;;;;;5053376;28;20480;-72
2023/10/07 00:13:09;;;;;;;22.37;4.63;;;16.20;1.00;;;;;;5053245;28;20472;-72
2023/10/07 00:15:36;;;;;;;9.20;4.03;;;16.20;1.00;;;;;;5052481;28;20520;-73
2023/10/07 00:18:18;;;;;;;16.53;3.20;;;16.20;1.00;;;;;;5052170;28;20416;-73
2023/10/07 00:20:48;;;;;;;16.83;3.60;;;16.10;1.00;;;;;;5033334;28;20748;-71
2023/10/07 00:23:22;;;;;;;10.53;4.13;;;16.10;1.00;;;;;;5033182;28;20830;-74
2023/10/07 00:25:52;;;;;;;26.03;4.77;;;16.00;1.00;;;;;;5032235;28;20917;-73
2023/10/07 00:28:32;;;;;;;13.30;4.03;;;16.00;1.00;;;;;;5048179;28;20820;-73
2023/10/07 00:31:12;;;;;;;23.43;3.90;;;16.00;1.00;;;;;;5053179;28;20489;-74
2023/10/07 00:39:07;;;;;;;14.50;4.43;;;15.90;1.00;;;;;;5052762;28;20489;-73
2023/10/07 00:41:47;;;;;;;18.33;4.10;;;15.80;1.00;;;;;;5035077;28;20402;-73
2023/10/07 00:47:07;;;;;;;10.50;4.40;;;15.80;1.00;;;;;;5051923;28;20413;-72
2023/10/07 00:49:41;;;;;;;17.17;3.93;;;15.90;1.00;;;;;;5051543;28;20424;-71
2023/10/07 00:52:27;;;;;;;17.67;4.10;;;15.80;1.00;;;;;;5052730;28;20456;-72
2023/10/07 00:55:24;;;;;;;17.03;4.53;;;15.90;1.00;;;;;;5051885;28;20917;-72
2023/10/07 00:57:54;;;;;;;22.47;4.47;;;15.80;1.00;;;;;;5050960;28;20444;-73
2023/10/07 01:02:50;;;;;;;25.07;4.40;;;15.70;1.00;;;;;;5051062;28;20401;-71
2023/10/07 01:05:22;;;;;;;13.40;3.60;;;15.70;1.00;;;;;;5050721;28;20268;-71
2023/10/07 01:07:53;;;;;;;12.00;4.13;;;15.70;1.00;;;;;;5052633;28;20864;-73
2023/10/07 01:10:31;;;;;;;26.37;6.70;;;15.70;1.00;;;;;;5052590;28;20449;-73
2023/10/07 01:13:01;;;;;;;15.50;5.00;;;15.70;1.00;;;;;;5052697;28;20448;-72
2023/10/07 01:15:29;;;;;;;17.67;4.70;;;15.70;1.00;;;;;;5051592;28;20500;-72
2023/10/07 01:18:05;;;;;;;17.13;3.47;;;15.50;99.90;;;;;;5051476;28;20465;-71
2023/10/07 01:20:38;;;;;;;10.70;3.47;;;15.60;99.90;;;;;;5052052;28;20471;-72
2023/10/07 01:23:04;;;;;;;16.73;5.20;;;15.60;99.90;;;;;;5052365;28;20421;-73
2023/10/07 01:25:34;;;;;;;18.23;3.27;;;15.60;99.90;;;;;;5051623;28;20421;-72
2023/10/07 01:28:02;;;;;;;13.47;4.10;;;15.50;99.90;;;;;;5051834;28;20457;-74
2023/10/07 01:30:34;;;;;;;22.53;4.73;;;15.40;99.90;;;;;;5052016;28;20507;-72
2023/10/07 01:33:35;;;;;;;11.97;3.13;;;15.40;99.90;;;;;;5051570;28;20464;-72
2023/10/07 01:36:06;;;;;;;20.50;4.03;;;15.40;99.90;;;;;;5051600;28;20866;-74
2023/10/07 01:38:33;;;;;;;11.80;3.63;;;15.30;99.90;;;;;;5051445;28;20926;-74
2023/10/07 01:41:14;;;;;;;12.70;2.73;;;15.30;99.90;;;;;;5052564;28;20494;-73
2023/10/07 01:43:41;;;;;;;7.27;3.23;;;15.30;99.90;;;;;;5032354;28;20514;-76
2023/10/07 01:46:19;;;;;;;17.37;3.10;;;15.20;99.90;;;;;;5052163;28;20426;-72
2023/10/07 01:48:55;;;;;;;20.47;3.70;;;15.20;99.90;;;;;;5049948;28;20435;-73
2023/10/07 01:51:22;;;;;;;11.47;3.30;;;15.20;99.90;;;;;;5053345;28;20926;-74
2023/10/07 01:53:49;;;;;;;12.33;3.60;;;15.20;99.90;;;;;;5055219;28;20885;-73
2023/10/07 01:56:15;;;;;;;18.50;3.20;;;15.20;99.90;;;;;;5054475;28;21043;-72
2023/10/07 01:58:41;;;;;;;12.90;3.23;;;15.20;99.90;;;;;;5055867;28;20480;-72
2023/10/07 02:01:07;;;;;;;16.00;3.73;;;15.10;99.90;;;;;;5056048;28;20169;-71
2023/10/07 02:03:33;;;;;;;16.07;3.70;;;15.20;99.90;;;;;;5054761;28;20178;-72
2023/10/07 02:05:59;;;;;;;11.37;5.23;;;15.10;99.90;;;;;;5055025;28;20417;-74
2023/10/07 02:08:25;;;;;;;18.87;3.60;;;15.10;99.90;;;;;;5055906;28;20477;-75
2023/10/07 02:10:56;;;;;;;13.93;3.37;;;15.10;99.90;;;;;;5054891;28;20178;-74
2023/10/07 02:13:23;;;;;;;19.57;4.23;;;15.10;99.90;;;;;;5055636;28;20456;-75
2023/10/07 02:15:51;;;;;;;20.80;3.90;;;15.10;99.90;;;;;;5054181;28;20409;-75
2023/10/07 02:18:18;;;;;;;20.13;4.00;;;15.00;99.90;;;;;;5054629;28;20913;-75
2023/10/07 02:21:07;;;;;;;15.60;4.47;;;15.10;99.90;;;;;;5055718;28;20401;-76
2023/10/07 02:26:17;;;;;;;18.87;4.43;;;15.00;99.90;;;;;;5055314;28;20433;-72
2023/10/07 02:28:44;;;;;;;20.07;4.43;;;15.00;99.90;;;;;;5054097;28;20871;-73
2023/10/07 02:31:19;;;;;;;26.07;4.53;;;15.00;99.90;;;;;;5037529;28;20747;-75
2023/10/07 02:33:53;;;;;;;14.43;4.50;;;14.90;99.90;;;;;;5053436;28;20432;-73
2023/10/07 02:36:31;;;;;;;15.30;4.10;;;15.00;99.90;;;;;;5054317;28;20421;-72
2023/10/07 02:39:18;;;;;;;18.00;3.40;;;15.00;99.90;;;;;;5055617;28;20757;-72
2023/10/07 02:41:46;;;;;;;11.73;4.13;;;15.00;99.90;;;;;;5055268;28;20420;-73
2023/10/07 02:44:16;;;;;;;22.90;4.17;;;15.00;99.90;;;;;;5052194;28;20432;-75
2023/10/07 02:46:42;;;;;;;19.47;4.57;;;15.00;99.90;;;;;;5035182;28;20794;-74
2023/10/07 02:49:11;;;;;;;13.63;4.23;;;15.00;99.90;;;;;;5044152;28;20456;-75
2023/10/07 02:51:46;;;;;;;21.50;4.10;;;15.00;99.90;;;;;;5055183;28;20524;-76
2023/10/07 02:54:21;;;;;;;22.60;4.17;;;15.00;99.90;;;;;;5053782;28;20889;-74
2023/10/07 02:56:55;;;;;;;27.33;5.00;;;14.90;99.90;;;;;;5053580;28;20448;-73
2023/10/07 02:59:26;;;;;;;18.80;3.57;;;14.90;99.90;;;;;;5054989;28;20516;-71
2023/10/07 03:04:36;;;;;;;15.17;3.03;;;14.90;99.90;;;;;;5046326;28;20432;-71
2023/10/07 03:07:13;;;;;;;21.70;5.07;;;14.90;99.90;;;;;;5053743;28;20431;-72
2023/10/07 03:09:52;;;;;;;14.23;4.50;;;14.80;99.90;;;;;;5054885;28;20389;-77
2023/10/07 03:12:27;;;;;;;18.73;4.10;;;14.80;99.90;;;;;;5053914;28;20952;-77
2023/10/07 03:14:57;;;;;;;14.23;3.50;;;14.80;99.90;;;;;;5053818;28;20838;-71
2023/10/07 03:17:33;;;;;;;20.80;4.07;;;14.80;99.90;;;;;;5053543;28;20389;-74
2023/10/07 03:20:23;;;;;;;16.27;3.30;;;14.80;99.90;;;;;;5052434;28;20421;-71
2023/10/07 03:23:10;;;;;;;18.77;5.30;;;14.80;99.90;;;;;;5054266;28;20413;-76
2023/10/07 03:25:47;;;;;;;17.00;3.73;;;14.70;99.90;;;;;;5053459;28;20441;-72
2023/10/07 03:28:16;;;;;;;16.57;5.73;;;14.80;99.90;;;;;;5054490;28;20409;-76
2023/10/07 03:30:47;;;;;;;23.10;4.10;;;14.70;99.90;;;;;;5035765;28;20930;-76
2023/10/07 03:33:15;;;;;;;15.03;4.70;;;14.70;99.90;;;;;;5035365;28;20464;-71
2023/10/07 03:38:26;;;;;;;21.80;4.60;;;14.70;99.90;;;;;;5054270;28;20452;-74
2023/10/07 03:40:55;;;;;;;16.20;5.03;;;14.60;99.90;;;;;;5054279;28;20398;-72
2023/10/07 03:43:30;;;;;;;11.20;3.47;;;14.60;99.90;;;;;;5036267;28;20420;-72
2023/10/07 03:45:56;;;;;;;15.30;3.50;;;14.60;99.90;;;;;;5052284;28;20458;-76
2023/10/07 03:48:23;;;;;;;13.37;3.20;;;14.60;99.90;;;;;;5054130;28;20401;-71
2023/10/07 03:51:09;;;;;;;16.87;6.80;;;14.60;99.90;;;;;;5053152;28;20455;-76
2023/10/07 03:53:45;;;;;;;20.30;3.43;;;14.60;99.90;;;;;;5053741;28;20805;-75
2023/10/07 03:56:12;;;;;;;14.90;4.07;;;14.60;99.90;;;;;;5053901;28;20421;-75
2023/10/07 03:58:41;;;;;;;16.23;5.33;;;14.60;99.90;;;;;;5053842;28;20429;-76
2023/10/07 04:01:17;;;;;;;11.57;4.37;;;14.60;99.90;;;;;;5051313;28;20448;-76
2023/10/07 04:03:52;;;;;;;17.93;4.07;;;14.60;99.90;;;;;;5052880;28;20480;-71
2023/10/07 04:06:30;;;;;;;14.80;3.87;;;14.60;99.90;;;;;;5053855;28;20551;-70
2023/10/07 04:09:05;;;;;;;14.73;4.60;;;14.60;99.90;;;;;;5053739;28;20758;-76
2023/10/07 04:11:39;;;;;;;17.23;4.60;;;14.60;99.90;;;;;;5052877;28;20401;-76
2023/10/07 04:14:08;;;;;;;23.97;3.90;;;14.70;99.90;;;;;;5051183;28;20447;-70
2023/10/07 04:16:36;;;;;;;20.77;3.73;;;14.60;99.90;;;;;;5052285;28;20449;-71
2023/10/07 04:21:40;;;;;;;15.63;4.30;;;14.50;99.90;;;;;;5038825;28;20433;-70
2023/10/07 04:24:10;;;;;;;9.20;3.00;;;14.50;99.90;;;;;;5052459;28;20409;-71
2023/10/07 04:26:40;;;;;;;24.63;5.30;;;14.60;99.90;;;;;;5053248;28;20225;-70
2023/10/07 04:29:08;;;;;;;14.43;3.87;;;14.60;99.90;;;;;;5051954;28;20427;-75
2023/10/07 04:31:37;;;;;;;14.00;3.83;;;14.60;99.90;;;;;;5051535;28;20524;-74
2023/10/07 04:34:13;;;;;;;11.63;3.80;;;14.50;99.90;;;;;;5052338;28;20393;-70
2023/10/07 04:37:08;;;;;;;16.53;4.37;;;14.50;99.90;;;;;;5053043;28;20417;-76
2023/10/07 04:42:23;;;;;;;13.97;3.80;;;14.50;99.90;;;;;;5014528;28;20446;-70
2023/10/07 04:50:15;;;;;;;17.13;3.77;;;14.50;99.90;;;;;;5051847;28;20468;-76
2023/10/07 04:52:50;;;;;;;22.57;3.60;;;14.50;99.90;;;;;;5052671;28;20452;-71
2023/10/07 04:55:19;;;;;;;16.77;4.20;;;14.50;99.90;;;;;;5050827;28;20417;-70
2023/10/07 05:02:59;;;;;;;10.87;3.40;;;14.50;99.90;;;;;;5051860;28;20436;-70
2023/10/07 05:05:30;;;;;;;19.40;4.03;;;14.40;99.90;;;;;;5050916;28;20437;-75
2023/10/07 05:08:19;;;;;;;14.87;3.00;;;14.40;99.90;;;;;;5052637;28;20384;-75
2023/10/07 05:10:55;;;;;;;17.43;4.30;;;14.40;99.90;;;;;;5051706;28;20512;-74
2023/10/07 05:13:21;;;;;;;20.00;3.77;;;14.30;99.90;;;;;;5051679;28;20460;-75
2023/10/07 05:15:47;;;;;;;11.13;3.37;;;14.30;99.90;;;;;;5051761;28;20455;-76
2023/10/07 05:18:16;;;;;;;15.60;3.27;;;14.30;99.90;;;;;;5050901;28;20429;-75
2023/10/07 05:20:46;;;;;;;8.93;3.33;;;14.30;99.90;;;;;;5052645;28;20646;-73
2023/10/07 05:23:17;;;;;;;10.97;3.13;;;14.30;99.90;;;;;;5051651;28;20409;-75
2023/10/07 05:25:50;;;;;;;12.13;2.97;;;14.30;99.90;;;;;;5050844;28;20457;-74
2023/10/07 05:28:20;;;;;;;13.17;3.53;;;14.30;99.90;;;;;;5056775;28;20976;-72
2023/10/07 05:30:52;;;;;;;15.90;3.50;;;14.20;99.90;;;;;;5056623;28;20428;-70
2023/10/07 05:33:20;;;;;;;17.20;3.80;;;14.20;99.90;;;;;;5054328;28;20461;-70
2023/10/07 05:35:49;;;;;;;14.07;3.27;;;14.20;99.90;;;;;;5055511;28;20432;-72
2023/10/07 05:38:17;;;;;;;6.70;2.47;;;14.20;99.90;;;;;;5056162;28;20401;-76
2023/10/07 05:40:42;;;;;;;15.00;3.00;;;14.20;99.90;;;;;;5054501;28;20479;-75
2023/10/07 05:43:08;;;;;;;20.40;3.33;;;14.20;99.90;;;;;;5054625;28;20421;-72
2023/10/07 05:45:35;;;;;;;13.10;4.10;;;14.10;99.90;;;;;;5054391;28;20229;-70
2023/10/07 05:48:01;;;;;;;13.93;2.93;;;14.20;99.90;;;;;;5054356;28;20179;-76
2023/10/07 05:50:27;;;;;;;13.10;3.27;;;14.20;99.90;;;;;;5056144;28;20415;-69
2023/10/07 05:52:54;;;;;;;20.87;4.00;;;14.20;99.90;;;;;;5056303;28;20445;-72
2023/10/07 05:55:19;;;;;;;20.70;4.53;;;14.20;99.90;;;;;;5053743;28;20201;-71
2023/10/07 05:57:45;;;;;;;12.10;3.50;;;14.10;99.90;;;;;;5055532;28;20397;-75
2023/10/07 06:00:11;;;;;;;19.13;3.53;;;14.20;99.90;;;;;;5056260;28;20171;-76
2023/10/07 06:02:37;;;;;;;10.07;2.43;;;14.20;99.90;;;;;;5056261;28;20309;-71
2023/10/07 06:05:10;;;;;;;13.20;2.77;;;14.20;99.90;;;;;;5053873;28;20455;-72
2023/10/07 06:07:39;;;;;;;15.47;3.07;;;14.10;99.90;;;;;;5056101;28;20409;-70
2023/10/07 06:10:09;;;;;;;11.87;3.60;;;14.00;99.90;;;;;;5054878;28;20436;-72
2023/10/07 06:12:35;;;;;;;12.47;3.70;;;14.10;99.90;;;;;;5055885;28;20445;-76
2023/10/07 06:15:01;;;;;;;9.23;2.60;;;14.10;99.90;;;;;;5054281;28;20417;-72
2023/10/07 06:17:27;;;;;;;10.10;2.50;;;14.10;99.90;;;;;;5055928;28;20893;-72
2023/10/07 06:19:53;;;;;;;9.17;3.27;;;14.10;99.90;;;;;;5054531;28;20298;-71
2023/10/07 06:22:22;;;;;;;10.03;2.40;;;14.10;99.90;;;;;;5055590;28;20427;-70
2023/10/07 06:24:52;;;;;;;11.40;3.23;;;14.10;99.90;;;;;;5054620;28;20590;-75
2023/10/07 06:27:21;;;;;;;23.73;5.13;;;14.10;99.90;;;;;;5055559;28;20425;-70
2023/10/07 06:29:48;;;;;;;8.97;3.53;;;14.00;99.90;;;;;;5055555;28;20746;-77
2023/10/07 06:32:23;;;;;;;15.80;3.30;;;14.00;99.90;;;;;;5053939;28;20479;-73
2023/10/07 06:34:52;;;;;;;9.10;3.30;;;14.10;99.90;;;;;;5034663;28;20433;-70
2023/10/07 06:37:25;;;;;;;12.20;2.83;;;14.00;99.90;;;;;;5035115;28;20450;-71
2023/10/07 06:39:51;;;;;;;11.83;3.50;;;14.00;99.90;;;;;;5035481;28;20406;-75
2023/10/07 06:42:24;;;;;;;17.23;3.13;;;13.90;99.90;;;;;;5048884;28;20524;-76
2023/10/07 06:44:56;;;;;;;6.80;3.20;;;14.00;99.90;;;;;;5054546;28;20436;-76
2023/10/07 06:47:29;;;;;;;9.77;2.20;;;14.00;99.90;;;;;;5054178;28;20536;-76
2023/10/07 06:49:58;;;;;;;13.53;3.37;;;13.90;99.90;;;;;;5055169;28;20438;-71
2023/10/07 06:52:25;;;;;;;7.30;2.80;;;13.80;99.90;;;;;;5054323;28;20450;-71
2023/10/07 06:54:54;;;;;;;6.47;2.57;;;13.80;99.90;;;;;;5052523;28;20456;-70
2023/10/07 06:57:20;;;;;;;18.80;4.13;;;13.70;99.90;;;;;;5055422;28;20447;-75
2023/10/07 06:59:46;;;;;;;6.50;2.57;;;13.70;99.90;;;;;;5055030;28;20489;-73
2023/10/07 07:02:18;;;;;;;10.07;3.60;;;13.70;99.90;;;;;;5052534;28;20524;-75
2023/10/07 07:04:44;;;;;;;13.53;3.33;;;13.70;99.90;;;;;;5052579;28;20193;-76
2023/10/07 07:07:10;;;;;;;11.80;2.67;;;13.80;99.90;;;;;;5054803;28;20409;-70
2023/10/07 07:09:50;;;;;;;11.10;3.80;;;13.80;99.90;;;;;;5054945;28;20408;-75
2023/10/07 07:12:21;;;;;;;10.67;3.07;;;13.70;99.90;;;;;;5053348;28;20194;-76
2023/10/07 07:14:59;;;;;;;13.93;3.73;;;13.80;99.90;;;;;;5053853;28;20408;-70
2023/10/07 07:22:42;;;;;;;15.57;3.27;;;13.80;99.90;;;;;;5054000;28;20472;-72
2023/10/07 07:25:11;;;;;;;8.70;2.47;;;13.80;99.90;;;;;;5053492;28;20433;-77
2023/10/07 07:27:48;;;;;;;10.77;2.63;;;13.80;99.90;;;;;;5054381;28;20860;-77
2023/10/07 07:30:31;;;;;;;11.80;2.63;;;13.60;99.90;;;;;;5053849;28;20444;-71
2023/10/07 07:32:59;;;;;;;10.73;2.73;;;13.70;99.90;;;;;;5053374;28;20461;-73
2023/10/07 07:35:40;;;;;;;12.13;2.90;;;13.80;99.90;;;;;;5053474;28;20403;-76
2023/10/07 07:38:30;;;;;;;7.23;3.13;;;13.90;99.90;;;;;;5054353;28;20401;-76
2023/10/07 07:41:08;;;;;;;8.80;2.60;;;13.80;99.90;;;;;;5054390;28;20805;-75
2023/10/07 07:43:37;;;;;;;8.90;4.03;;;13.80;99.90;;;;;;5054173;28;20416;-72
2023/10/07 07:48:45;;;;;;;7.53;2.60;;;13.80;99.90;;;;;;5050896;28;20472;-74
2023/10/07 07:51:15;;;;;;;10.00;2.07;;;13.80;99.90;;;;;;5054102;28;20441;-76
2023/10/07 07:53:41;;;;;;;10.93;2.73;;;13.90;99.90;;;;;;5053123;28;20456;-76
2023/10/07 07:56:12;;;;;;;13.63;3.80;;;13.90;99.90;;;;;;5053991;28;20428;-74
2023/10/07 07:58:39;;;;;;;14.63;2.97;;;13.90;99.90;;;;;;5053803;28;20548;-72
2023/10/07 08:01:05;;;;;;;6.90;2.67;;;13.90;99.90;;;;;;5052647;28;20469;-73
2023/10/07 08:03:38;;;;;;;6.60;2.07;;;13.80;99.90;;;;;;5053739;28;20500;-78
2023/10/07 08:06:04;;;;;;;3.20;1.80;;;13.90;99.90;;;;;;5053093;28;20500;-74
2023/10/07 08:08:30;;;;;;;7.33;2.30;;;13.80;99.90;;;;;;5035402;28;20425;-74
2023/10/07 08:10:58;;;;;;;10.00;2.70;;;13.90;99.90;;;;;;5053643;28;20436;-77
2023/10/07 08:13:29;;;;;;;7.47;2.60;;;13.90;99.90;;;;;;5053395;28;20449;-73
2023/10/07 08:15:56;;;;;;;7.37;2.23;;;13.90;99.90;;;;;;5034673;28;20540;-76
2023/10/07 08:18:28;;;;;;;7.97;2.67;;;14.00;99.90;;;;;;5052700;28;20452;-73
2023/10/07 08:21:06;;;;;;;14.63;2.57;;;14.00;99.90;;;;;;5052652;28;20408;-73
2023/10/07 08:23:36;;;;;;;5.87;2.37;;;14.00;99.90;;;;;;5053306;28;20873;-74
2023/10/07 08:26:09;;;;;;;9.60;2.73;;;14.10;99.90;;;;;;5051767;28;20945;-78
2023/10/07 08:28:43;;;;;;;10.30;2.80;;;14.10;99.90;;;;;;5052127;28;20516;-75
2023/10/07 08:31:14;;;;;;;7.83;2.50;;;14.10;99.90;;;;;;5053315;28;21001;-75
2023/10/07 08:33:53;;;;;;;9.13;2.93;;;14.10;99.90;;;;;;5052573;28;20456;-77
2023/10/07 08:36:19;;;;;;;6.63;2.70;;;14.00;99.90;;;;;;5053309;28;20949;-78
2023/10/07 08:38:45;;;;;;;7.53;2.47;;;14.00;99.90;;;;;;5053180;28;20886;-73
2023/10/07 08:41:16;;;;;;;7.33;2.00;;;14.00;99.90;;;;;;5053078;28;20401;-78
2023/10/07 08:43:45;;;;;;;14.33;2.40;;;14.10;99.90;;;;;;5051120;28;21278;-75
2023/10/07 08:46:19;;;;;;;4.27;1.77;;;14.20;99.90;;;;;;5052391;28;20428;-78
2023/10/07 08:48:56;;;;;;;6.27;2.27;;;14.10;99.90;;;;;;5053024;28;20428;-72
2023/10/07 08:51:24;;;;;;;7.90;2.83;;;14.10;99.90;;;;;;5051740;28;21138;-77
2023/10/07 08:54:05;;;;;;;9.13;2.10;;;14.10;99.90;;;;;;5052126;28;20417;-76
2023/10/07 08:56:37;;;;;;;6.63;2.17;;;14.30;99.90;;;;;;5034501;28;20802;-77
2023/10/07 08:59:07;;;;;;;7.70;1.90;;;14.40;99.90;;;;;;5051922;28;20508;-74
2023/10/07 09:01:34;;;;;;;7.73;1.87;;;14.30;99.90;;;;;;5052907;28;20556;-77
2023/10/07 09:04:06;;;;;;;6.63;2.07;;;14.30;99.90;;;;;;5033296;28;20417;-72
2023/10/07 09:06:33;;;;;;;5.70;2.30;;;14.30;99.90;;;;;;5052747;28;20444;-72
2023/10/07 09:09:06;;;;;;;2.77;1.47;;;14.30;99.90;;;;;;5052981;28;20773;-76
2023/10/07 09:11:36;;;;;;;5.40;1.60;;;14.40;99.90;;;;;;5051485;28;20405;-77
2023/10/07 09:14:10;;;;;;;6.03;2.00;;;14.40;99.90;;;;;;5049675;28;20479;-76
2023/10/07 09:16:38;;;;;;;8.90;2.03;;;14.50;99.90;;;;;;5051657;28;20480;-76
2023/10/07 09:19:15;;;;;;;3.53;2.00;;;14.60;99.90;;;;;;5034868;28;20500;-78
2023/10/07 09:21:45;;;;;;;3.67;1.90;;;14.60;99.90;;;;;;5052106;28;20412;-75
2023/10/07 09:24:23;;;;;;;7.47;2.23;;;14.70;99.90;;;;;;5050198;28;20429;-72
2023/10/07 09:26:59;;;;;;;5.33;2.40;;;14.70;99.90;;;;;;5048987;28;20829;-76
2023/10/07 09:29:27;;;;;;;7.20;2.10;;;14.70;99.90;;;;;;5050449;28;20456;-76
2023/10/07 09:31:56;;;;;;;7.33;2.30;;;14.70;99.90;;;;;;5051415;28;20891;-73
2023/10/07 09:37:17;;;;;;;10.87;2.23;;;14.50;99.90;;;;;;5052553;28;20497;-72
2023/10/07 09:40:18;;;;;;;6.23;1.83;;;14.50;99.90;;;;;;5052536;28;20459;-77
2023/10/07 09:42:57;;;;;;;5.20;2.10;;;14.50;99.90;;;;;;5048915;28;20527;-72
2023/10/07 09:45:32;;;;;;;8.73;2.33;;;14.50;99.90;;;;;;5050352;28;20452;-76
2023/10/07 09:48:05;;;;;;;3.60;2.10;;;14.50;99.90;;;;;;5052580;28;20482;-72
2023/10/07 09:50:34;;;;;;;5.40;2.70;;;14.50;99.90;;;;;;5052498;28;20464;-78
2023/10/07 09:53:20;;;;;;;9.20;3.60;;;14.50;99.90;;;;;;5052515;28;20453;-77
2023/10/07 09:55:49;;;;;;;7.13;2.53;;;14.40;99.90;;;;;;5050575;28;20420;-76
2023/10/07 09:58:24;;;;;;;8.17;2.90;;;14.40;99.90;;;;;;5051995;28;20921;-71
2023/10/07 10:01:07;;;;;;;5.63;1.90;;;14.50;99.90;;;;;;5051748;28;20409;-73
2023/10/07 10:03:39;;;;;;;6.80;4.20;;;14.40;99.90;;;;;;5052064;28;20866;-71
2023/10/07 10:06:16;;;;;;;6.17;2.63;;;14.40;99.90;;;;;;5052311;28;20426;-77
2023/10/07 10:09:09;;;;;;;6.90;2.03;;;14.40;99.90;;;;;;5052388;28;20409;-72
2023/10/07 10:17:00;;;;;;;6.80;2.63;;;14.50;99.90;;;;;;5056001;28;20405;-73
2023/10/07 10:19:49;;;;;;;10.37;3.73;;;14.60;99.90;;;;;;5055243;28;20439;-74
2023/10/07 10:22:24;;;;;;;8.23;2.50;;;14.70;99.90;;;;;;5055956;28;20409;-77
2023/10/07 10:25:09;;;;;;;7.97;2.87;;;14.60;99.90;;;;;;5035953;28;20956;-77
2023/10/07 10:27:43;;;;;;;6.20;2.40;;;14.60;99.90;;;;;;5054267;28;20967;-73
2023/10/07 10:30:23;;;;;;;6.87;3.10;;;14.60;99.90;;;;;;5055806;28;20960;-73
2023/10/07 10:32:57;;;;;;;6.93;2.40;;;14.60;99.90;;;;;;5052656;28;20507;-73
2023/10/07 10:35:24;;;;;;;5.47;2.83;;;14.60;99.90;;;;;;5054797;28;20421;-78
2023/10/07 10:37:59;;;;;;;7.17;2.53;;;14.60;99.90;;;;;;5055276;28;20402;-74
2023/10/07 10:40:31;;;;;;;9.03;2.57;;;14.50;99.90;;;;;;5053818;28;20443;-75
2023/10/07 10:42:57;;;;;;;7.00;2.20;;;14.50;99.90;;;;;;5053492;28;20574;-73
2023/10/07 10:45:26;;;;;;;8.90;2.27;;;14.50;99.90;;;;;;5053372;28;20521;-73
2023/10/07 10:47:54;;;;;;;7.93;2.60;;;14.60;99.90;;;;;;5055416;28;20878;-78
2023/10/07 10:50:23;;;;;;;10.70;3.17;;;14.60;99.90;;;;;;5055457;28;20408;-73
2023/10/07 10:53:01;;;;;;;9.83;3.57;;;14.50;99.90;;;;;;5055327;28;20452;-74
2023/10/07 10:55:38;;;;;;;5.53;2.63;;;14.50;99.90;;;;;;5053481;28;20448;-77
2023/10/07 10:58:16;;;;;;;5.57;2.83;;;14.50;99.90;;;;;;5053118;28;20433;-77
2023/10/07 11:00:49;;;;;;;9.60;2.10;;;14.50;99.90;;;;;;5055279;28;20613;-74
2023/10/07 11:03:20;;;;;;;7.37;2.73;;;14.50;99.90;;;;;;5055206;28;20874;-75
2023/10/07 11:05:58;;;;;;;12.83;2.83;;;14.50;99.90;;;;;;5054270;28;20429;-78
2023/10/07 11:08:29;;;;;;;5.87;2.03;;;14.50;99.90;;;;;;5036291;28;20444;-73
2023/10/07 11:10:58;;;;;;;5.40;2.20;;;14.50;99.90;;;;;;5055172;28;20885;-73
2023/10/07 11:13:29;;;;;;;6.80;2.30;;;14.50;99.90;;;;;;5053712;28;20468;-74
2023/10/07 11:15:58;;;;;;;10.70;2.83;;;14.50;99.90;;;;;;5035421;28;20544;-74
2023/10/07 11:18:33;;;;;;;6.73;2.83;;;14.40;99.90;;;;;;5036884;28;20934;-78
2023/10/07 11:21:02;;;;;;;7.93;2.90;;;14.30;99.90;;;;;;5054884;28;20503;-77
2023/10/07 11:23:27;;;;;;;5.43;2.90;;;14.30;99.90;;;;;;5053506;28;20413;-77
2023/10/07 11:25:57;;;;;;;6.70;2.10;;;14.30;99.90;;;;;;5053033;28;20461;-77
2023/10/07 11:28:22;;;;;;;9.43;2.90;;;14.30;99.90;;;;;;5036305;28;20198;-76
2023/10/07 11:30:51;;;;;;;8.73;3.00;;;14.30;99.90;;;;;;5053801;28;20433;-75
2023/10/07 11:33:17;;;;;;;11.70;2.83;;;14.30;99.90;;;;;;5053348;28;20202;-79
2023/10/07 11:35:46;;;;;;;5.13;2.40;;;14.40;99.90;;;;;;5053036;28;20425;-76
2023/10/07 11:38:13;;;;;;;10.80;2.93;;;14.20;99.90;;;;;;5054448;28;20405;-77
2023/10/07 11:40:39;;;;;;;5.23;2.57;;;14.10;99.90;;;;;;5054362;28;20489;-77
2023/10/07 11:43:08;;;;;;;10.40;2.53;;;14.10;99.90;;;;;;5053474;28;20429;-74
2023/10/07 11:45:36;;;;;;;6.60;3.07;;;14.00;99.90;;;;;;5051210;28;20807;-77
2023/10/07 11:48:04;;;;;;;8.70;3.20;;;14.00;99.90;;;;;;5054325;28;20422;-73
2023/10/07 11:50:34;;;;;;;12.63;3.60;;;14.00;99.90;;;;;;5052987;28;20420;-78
2023/10/07 11:53:09;;;;;;;9.10;3.23;;;14.10;99.90;;;;;;5053493;28;20536;-76
2023/10/07 11:55:36;;;;;;;11.10;3.57;;;14.00;99.90;;;;;;5053422;28;20417;-75
2023/10/07 11:58:02;;;;;;;15.37;3.00;;;13.90;99.90;;;;;;5050216;28;20821;-77
2023/10/07 12:00:34;;;;;;;8.17;3.27;;;13.90;99.90;;;;;;5036110;28;20432;-73
2023/10/07 12:03:06;;;;;;;12.07;4.13;;;14.00;99.90;;;;;;5043711;28;20417;-71
2023/10/07 12:05:33;;;;;;;7.60;2.57;;;14.00;99.90;;;;;;5049263;28;20503;-77
2023/10/07 12:08:01;;;;;;;3.40;2.30;;;14.00;99.90;;;;;;5046083;28;20953;-75
2023/10/07 12:10:33;;;;;;;8.00;2.93;;;13.90;99.90;;;;;;5049921;28;20429;-77
2023/10/07 12:12:59;;;;;;;13.20;3.67;;;13.90;99.90;;;;;;5032136;28;20461;-74
2023/10/07 12:15:25;;;;;;;11.23;4.07;;;13.80;99.90;;;;;;5050040;28;20489;-77
2023/10/07 12:17:51;;;;;;;9.40;3.43;;;13.80;99.90;;;;;;5033292;28;20456;-71
2023/10/07 12:20:20;;;;;;;8.63;3.10;;;13.70;99.90;;;;;;5032430;28;20171;-78
2023/10/07 12:22:46;;;;;;;15.80;3.50;;;13.50;99.90;;;;;;5050934;28;20846;-72
2023/10/07 12:25:16;;;;;;;10.60;3.30;;;13.40;99.90;;;;;;5051061;28;20433;-77
2023/10/07 12:27:47;;;;;;;9.30;3.83;;;13.40;99.90;;;;;;5048529;28;20449;-74
2023/10/07 12:30:14;;;;;;;7.07;2.77;;;13.40;99.90;;;;;;5031266;28;20476;-73
2023/10/07 12:32:43;;;;;;;10.20;4.13;;;13.40;99.90;;;;;;5036522;28;20507;-73
2023/10/07 12:35:09;;;;;;;15.30;3.43;;;13.50;99.90;;;;;;5049705;28;20487;-74
2023/10/07 12:37:38;;;;;;;13.13;3.17;;;13.50;99.90;;;;;;5051261;28;20429;-72
2023/10/07 12:40:10;;;;;;;6.47;2.83;;;13.60;99.90;;;;;;5051092;28;20467;-71
2023/10/07 12:42:39;;;;;;;10.47;4.90;;;13.60;99.90;;;;;;5050049;28;20429;-73
2023/10/07 12:45:06;;;;;;;9.23;2.93;;;13.70;99.90;;;;;;5048999;28;20457;-78
2023/10/07 12:47:37;;;;;;;13.83;3.70;;;13.80;99.90;;;;;;5048411;28;20975;-73
2023/10/07 12:50:24;;;;;;;11.13;3.00;;;13.70;99.90;;;;;;5049890;28;20426;-73
2023/10/07 12:52:51;;;;;;;10.70;4.37;;;13.80;99.90;;;;;;5052058;28;20461;-78
2023/10/07 12:55:17;;;;;;;8.60;3.30;;;13.90;99.90;;;;;;5030800;28;20821;-75
2023/10/07 12:57:44;;;;;;;7.63;3.63;;;13.90;99.90;;;;;;5050136;28;20440;-73
2023/10/07 13:00:22;;;;;;;6.10;2.60;;;14.00;99.90;;;;;;5052241;28;20390;-77
2023/10/07 13:02:52;;;;;;;13.47;3.43;;;14.10;99.90;;;;;;5037914;28;20492;-73
2023/10/07 13:05:18;;;;;;;12.23;3.60;;;14.10;99.90;;;;;;5048551;28;20453;-77
2023/10/07 13:07:46;;;;;;;11.10;3.00;;;14.10;99.90;;;;;;5032919;28;20441;-73
2023/10/07 13:10:12;;;;;;;11.30;3.17;;;14.00;96.80;;;;;;5052050;28;20933;-78
2023/10/07 13:12:39;;;;;;;10.27;3.10;;;14.10;93.00;;;;;;5048949;28;20503;-72
2023/10/07 13:15:17;;;;;;;11.23;3.80;;;14.10;83.70;;;;;;5050729;28;20428;-77
2023/10/07 13:17:48;;;;;;;14.07;3.70;;;14.20;83.70;;;;;;5039265;28;20448;-77
2023/10/07 13:20:23;;;;;;;10.63;4.10;;;14.20;83.70;;;;;;5051325;28;20425;-77
2023/10/07 13:22:49;;;;;;;14.47;5.30;;;14.30;76.60;;;;;;5051420;28;20474;-72
2023/10/07 13:25:17;;;;;;;14.70;4.73;;;14.30;63.30;;;;;;5049432;28;20457;-73
2023/10/07 13:27:43;;;;;;;14.93;3.57;;;14.20;36.50;;;;;;5048606;28;20463;-77
2023/10/07 13:30:12;;;;;;;8.33;3.33;;;14.30;36.50;;;;;;5050738;28;20952;-75
2023/10/07 13:32:44;;;;;;;15.87;3.60;;;14.30;36.50;;;;;;5051475;28;20469;-73
2023/10/07 13:35:20;;;;;;;12.73;2.80;;;14.30;20.60;;;;;;5049333;28;20449;-74
2023/10/07 13:37:49;;;;;;;10.43;4.90;;;14.30;2.70;;;;;;5050400;28;20763;-75
2023/10/07 13:40:16;;;;;;;8.80;3.10;;;14.20;1.00;;;;;;5032364;28;20437;-72
2023/10/07 13:42:49;;;;;;;9.33;3.87;;;14.20;1.00;;;;;;5049771;28;20440;-77
2023/10/07 13:45:15;;;;;;;12.13;3.67;;;14.20;1.00;;;;;;5016647;28;20460;-78
2023/10/07 13:47:45;;;;;;;13.97;3.53;;;14.10;1.00;;;;;;5042084;28;20433;-76
2023/10/07 13:50:14;;;;;;;12.80;3.53;;;14.00;1.00;;;;;;5051393;28;20180;-71
2023/10/07 13:52:50;;;;;;;14.60;3.37;;;14.10;1.00;;;;;;5051515;28;20996;-77